Tiempo atmosférico en la estación meteorológica de Almonte, Huelva (5 m.)



Fecha
DESCASC
Temp. máxima en grados centígrados (hora)
DESCASC
Temp. mínima en grados centígrados (hora)
DESCASC
Temp. media en grados centígrados
DESCASC
Racha de viento máxima en m/sg (hora)
DESCASC
Velocidad máxima media en intervalos de 10 minutos(hora)
DESCASC
Precipitaciones diarias en mm
DESCASC
Precipitaciones de 00:00 a 06:00 en mm
DESCASC
Precipitaciones de 06:00 a 12:00 en mm
DESCASC
Precipitaciones de 12:00 a 18:00 en mm
DESCASC
Precipitaciones de 18:00 a 24:00 en mm
DESCASC
22-04-2019 22.5 (14:50) 9.7 (06:40) 16.1 14.44 (21:30) 9.72 (20:20) 0 0 0 0 0
21-04-2019 22.2 (16:30) 11.4 (23:59) 16.8 9.17 (16:10) 5.83 (20:00) 0 0 0 0 0
20-04-2019 20.4 (19:30) 9.2 (07:10) 14.8 10.56 (16:10) 6.39 (16:10) 0.2 0.2 0 0 0
19-04-2019 21.2 (16:20) 6.9 (08:30) 14.1 8.61 (15:10) 6.11 (15:10) 3.8 0 0 1.4 2.4
18-04-2019 19.8 (16:20) 9.6 (00:00) 14.7 11.67 (15:40) 8.33 (15:40) 7 2.6 4.4 0 0
17-04-2019 23.3 (14:20) 7.2 (00:00) 15.2 13.33 (13:00) 9.44 (14:00) 0 0 0 0 0
16-04-2019 25.1 (15:40) 5.5 (00:00) 15.3 7.5 (16:10) 5.83 (16:10) 0 0 0 0 0
15-04-2019 23.6 (15:30) 7.6 (00:00) 15.6 13.61 (16:50) 9.72 (16:50) 0 0 0 0 0
14-04-2019 26.8 (15:20) 9.1 (00:00) 17.9 7.5 (16:30) 5.83 (16:30) 0 0 0 0 0
13-04-2019 24.7 (14:20) 6.8 (00:00) 15.8 8.61 (16:30) 6.67 (16:10) 0 0 0 0 0
12-04-2019 23.3 (14:30) 6 (00:00) 14.6 9.44 (20:00) 6.67 (17:30) 0 0 0 0 0
11-04-2019 21.1 (15:20) 7.1 (00:00) 14.1 9.44 (18:40) 7.5 (18:40) 0 0 0 0 0
10-04-2019 20 (17:00) 7.1 (00:00) 13.5 13.06 (18:00) 8.89 (18:00) 0 0 0 0 0
09-04-2019 19.4 (16:20) 6.6 (00:00) 13 12.22 (17:30) 9.17 (17:30) 0 0 0 0 0
08-04-2019 18.5 (17:20) 12.5 (00:00) 15.5 11.94 (19:40) 8.06 (19:50) 2 0 0.2 1.8 0
07-04-2019 18.3 (13:20) 10.6 (00:00) 14.4 11.67 (18:10) 8.61 (18:10) 5.4 1 0 3 1.4
06-04-2019 17.4 (14:50) 10.1 (00:00) 13.8 15.28 (18:10) 10.28 (15:10) 0.4 0 0 0.4 0
05-04-2019 16.1 (17:20) 9.8 (00:00) 13 16.39 (17:30) 10.28 (18:50) 14.6 3 11.2 0.2 0.2
04-04-2019 19.2 (16:10) 5 (00:00) 12.1 11.67 (18:30) 8.61 (18:40) 0 0 0 0 0
03-04-2019 22.9 (15:10) 7.7 (00:00) 15.3 11.11 (18:20) 7.78 (18:30) 0 0 0 0 0
02-04-2019 22.8 (16:30) 8.2 (00:00) 15.5 6.67 (17:20) 5 (17:20) 0 0 0 0 0
01-04-2019 20.5 (16:20) 10.8 (00:00) 15.7 10.56 (15:30) 7.5 (15:10) 2.2 0.6 0 1.6 0
31-03-2019 23.6 (14:50) 11.8 (00:00) 17.7 7.5 (17:50) 5.56 (17:50) 0 0 0 0 0
30-03-2019 24.9 (15:40) 7.7 (00:00) 16.3 10.83 (18:40) 6.11 (16:20) 0 0 0 0 0
29-03-2019 24.3 (15:10) 6 (00:00) 15.1 8.33 (16:20) 5 (15:00) 0 0 0 0 0
28-03-2019 24 (15:30) 6.2 (00:00) 15.1 8.33 (14:40) 4.72 (12:10) 0 0 0 0 0
27-03-2019 23.7 (15:30) 9 (00:00) 16.4 10.83 (17:50) 5.56 (17:50) 0 0 0 0 0
26-03-2019 25.6 (16:00) 11.5 (00:00) 18.6 10.83 (23:10) 5.28 (10:00) 0 0 0 0 0
25-03-2019 26.2 (16:40) 7.9 (00:00) 17.1 10.28 (13:00) 5.83 (15:20) 0 0 0 0 0

Gráficas

Temp. máximas Temp. mínimas Temp. medias Precipitaciones Rachas de viento máximas Velocidades máximas media en intervalos de 10 minutos

Datos horarios

Fecha y hora oficial Temperatura (ºC) Velocidad del viento (km/h) Dirección del viento Racha (km/h) Dirección de racha Precipitación (mm) Presión (hPa) Tendencia (hPa) Humedad (%)
2019-04-23 23:00:00 13.2 24 Oeste 35 Oeste 0 -- -- 69
2019-04-23 22:00:00 13.5 28 Oeste 44 Oeste 0 -- -- 68
2019-04-23 21:00:00 13.8 28 Oeste 46 Oeste 0 -- -- 63
2019-04-23 20:00:00 15.3 28 Oeste 47 Sudoeste 0 -- -- 59
2019-04-23 19:00:00 16.6 21 Oeste 33 Oeste 0 -- -- 57
2019-04-23 18:00:00 16.8 14 Noroeste 31 Sudoeste 0 -- -- 58
2019-04-23 17:00:00 17.3 23 Oeste 41 Oeste 0 -- -- 51
2019-04-23 16:00:00 17.2 27 Oeste 45 Sudoeste 0 -- -- 53
2019-04-23 15:00:00 16.7 23 Oeste 45 Sudoeste 0 -- -- 53
2019-04-23 14:00:00 16.8 26 Oeste 39 Oeste 0 -- -- 57
2019-04-23 13:00:00 16.1 26 Oeste 40 Sudoeste 0 -- -- 60
2019-04-23 12:00:00 15.3 23 Oeste 37 Oeste 0 -- -- 62
2019-04-23 11:00:00 14.3 19 Oeste 32 Oeste 0 -- -- 61
2019-04-23 10:00:00 12.6 12 Noroeste 25 Noroeste 0 -- -- 76
2019-04-23 09:00:00 10.7 12 Noroeste 22 Noroeste 0 -- -- 85
2019-04-23 08:00:00 11 11 Oeste 21 Noroeste 0 -- -- 90
2019-04-23 07:00:00 11.1 10 Oeste 21 Noroeste 0 -- -- 94
2019-04-23 06:00:00 11.6 9 Noroeste 26 Oeste 3.2 -- -- 94
2019-04-23 05:00:00 12.9 15 Noroeste 38 Oeste 1.6 -- -- 90
2019-04-23 04:00:00 14.8 22 Sudoeste 35 Sudoeste 0.6 -- -- 90
2019-04-23 03:00:00 15.4 18 Sudoeste 30 Sudoeste 0 -- -- 85
2019-04-23 02:00:00 15.8 19 Sudoeste 33 Sudoeste 0 -- -- 75
2019-04-23 01:00:00 15.6 21 Sudoeste 36 Oeste 0 -- -- 81
2019-04-23 00:00:00 15.6 25 Oeste 40 Oeste 0 -- -- 80
2019-04-22 23:00:00 15.9 28 Sudoeste 45 Sudoeste 0 -- -- 78
2019-04-22 22:00:00 15.9 31 Sudoeste 52 Sudoeste 0 -- -- 78
2019-04-22 21:00:00 16 34 Sudoeste 50 Sudoeste 0 -- -- 82
2019-04-22 20:00:00 16.8 33 Sudoeste 48 Sudoeste 0 -- -- 81
2019-04-22 19:00:00 18.8 34 Sudoeste 48 Sudoeste 0 -- -- 75
2019-04-22 18:00:00 20.5 26 Sudoeste 37 Sudoeste 0 -- -- 69
2019-04-22 17:00:00 21.8 27 Sudoeste 37 Sudoeste 0 -- -- 63
2019-04-22 16:00:00 22.2 24 Sudoeste 31 Sudoeste 0 -- -- 58
2019-04-22 15:00:00 22.5 19 Sudoeste 26 Sudoeste 0 -- -- 54
2019-04-22 14:00:00 21.9 17 Sudoeste 25 Sur 0 -- -- 57
2019-04-22 13:00:00 21.1 15 Sudoeste 25 Sur 0 -- -- 63
2019-04-22 12:00:00 19.8 15 Sudoeste 21 Sudoeste 0 -- -- 74
2019-04-22 11:00:00 16.5 7 Sur 11 Sudoeste 0 -- -- 88
2019-04-22 10:00:00 12.9 0 Calma 5 Este 0 -- -- 97
2019-04-22 09:00:00 11.6 0 Calma 5 Este 0 -- -- 97
2019-04-22 08:00:00 9.7 3 Este 7 Este 0 -- -- 96
2019-04-22 07:00:00 9.9 4 Este 6 Este 0 -- -- 95
2019-04-22 06:00:00 10.4 0 Calma 9 Norte 0 -- -- 91
2019-04-22 05:00:00 12.3 6 Noroeste 11 Noroeste 0 -- -- 93
2019-04-22 04:00:00 11.9 5 Noroeste 11 Noroeste 0 -- -- 93
2019-04-22 03:00:00 11.8 7 Noroeste 11 Noroeste 0 -- -- 93
2019-04-22 02:00:00 11.4 0 Calma 11 Noroeste 0 -- -- 89
2019-04-22 01:00:00 12.1 6 Noroeste 9 Noroeste 0 -- -- 92
2019-04-22 00:00:00 11.4 0 Calma 0 Calma 0 -- -- 86
2019-04-21 23:00:00 13.6 0 Calma 6 Nordeste 0 -- -- 83
2019-04-21 22:00:00 15.4 3 Norte 16 Noroeste 0 -- -- 78
2019-04-21 21:00:00 16.5 10 Oeste 25 Oeste 0 -- -- 73
2019-04-21 20:00:00 18.1 21 Oeste 30 Oeste 0 -- -- 65
2019-04-21 19:00:00 18.9 17 Oeste 27 Oeste 0 -- -- 62
2019-04-21 18:00:00 20.1 17 Oeste 22 Nordeste 0 -- -- 57
2019-04-21 17:00:00 20.8 13 Nordeste 33 Nordeste 0 -- -- 50
2019-04-21 16:00:00 21.6 13 Nordeste 25 Nordeste 0 -- -- 48
2019-04-21 15:00:00 20.8 12 Nordeste 26 Nordeste 0 -- -- 52
2019-04-21 14:00:00 20.2 15 Nordeste 32 Nordeste 0 -- -- 52
2019-04-21 13:00:00 19.3 13 Nordeste 26 Nordeste 0 -- -- 58
2019-04-21 12:00:00 18.3 13 Nordeste 32 Nordeste 0 -- -- 59
2019-04-21 11:00:00 16.9 14 Nordeste 26 Nordeste 0 -- -- 64
2019-04-21 10:00:00 13.7 6 Nordeste 12 Nordeste 0 -- -- 76
2019-04-21 09:00:00 12.4 3 Norte 8 Noroeste 0 -- -- 80
2019-04-21 08:00:00 12.5 0 Calma 10 Nordeste 0 -- -- 85
2019-04-21 07:00:00 12.9 6 Nordeste 13 Norte 0 -- -- 82
2019-04-21 06:00:00 12.6 6 Nordeste 11 Norte 0 -- -- 86
2019-04-21 05:00:00 12.8 6 Nordeste 13 Norte 0 -- -- 83
2019-04-21 04:00:00 12.7 4 Este 14 Este 0 -- -- 83
2019-04-21 03:00:00 12.8 0 Calma 8 Norte 0 -- -- 82
2019-04-21 02:00:00 13.7 6 Nordeste 14 Nordeste 0 -- -- 80
2019-04-21 01:00:00 14.2 7 Nordeste 14 Este 0 -- -- 78
2019-04-21 00:00:00 15.5 10 Nordeste 18 Norte 0 -- -- 73
2019-04-20 23:00:00 16.3 11 Nordeste 22 Nordeste 0 -- -- 69
2019-04-20 22:00:00 16.9 6 Norte 22 Nordeste 0 -- -- 66
2019-04-20 21:00:00 18.3 12 Nordeste 32 Nordeste 0 -- -- 63
2019-04-20 20:00:00 19.9 19 Nordeste 32 Norte 0 -- -- 57
2019-04-20 19:00:00 19.4 8 Norte 23 Nordeste 0 -- -- 64
2019-04-20 18:00:00 19.2 10 Norte 30 Nordeste 0 -- -- 62
2019-04-20 17:00:00 19.4 15 Nordeste 38 Nordeste 0 -- -- 62
2019-04-20 16:00:00 19.4 21 Nordeste 37 Nordeste 0 -- -- 60
2019-04-20 15:00:00 18.6 15 Nordeste 30 Norte 0 -- -- 63
2019-04-20 14:00:00 17.7 17 Nordeste 27 Nordeste 0 -- -- 65
2019-04-20 13:00:00 17.6 18 Nordeste 30 Nordeste 0 -- -- 68
2019-04-20 12:00:00 16.2 13 Nordeste 24 Norte 0 -- -- 74
2019-04-20 11:00:00 13.2 6 Norte 10 Nordeste 0 -- -- 90
2019-04-20 10:00:00 11.6 4 Norte 11 Nordeste 0 -- -- 96
2019-04-20 09:00:00 9.8 0 Calma 7 Noroeste 0 -- -- 97
2019-04-20 08:00:00 9.3 2 Norte 6 Nordeste 0 -- -- 97
2019-04-20 07:00:00 9.3 2 Norte 8 Norte 0 -- -- 97
2019-04-20 06:00:00 9.6 3 Norte 12 Nordeste 0 -- -- 97
2019-04-20 05:00:00 9.7 8 Nordeste 11 Nordeste 0 -- -- 97
2019-04-20 04:00:00 10.1 6 Nordeste 11 Norte 0.2 -- -- 96
2019-04-20 03:00:00 10.9 5 Norte 12 Nordeste 0 -- -- 96
2019-04-20 02:00:00 10.7 8 Nordeste 15 Norte 0 -- -- 96
2019-04-20 01:00:00 11.5 2 Nordeste 8 Sudeste 0 -- -- 93
2019-04-20 00:00:00 12.7 4 Norte 9 Norte 0 -- -- 92
2019-04-19 23:00:00 13.4 0 Calma 5 Norte 0 -- -- 91
2019-04-19 22:00:00 14.2 2 Noroeste 4 Norte 0 -- -- 92
2019-04-19 21:00:00 14.6 2 Norte 9 Oeste 0 -- -- 88
2019-04-19 20:00:00 15.1 4 Noroeste 9 Oeste 0.4 -- -- 88
2019-04-19 19:00:00 15 2 Noroeste 11 Norte 2 -- -- 89
2019-04-19 18:00:00 15.6 8 Noroeste 22 Sudoeste 1.4 -- -- 83
2019-04-19 17:00:00 18.7 16 Sudoeste 30 Oeste 0 -- -- 57
2019-04-19 16:00:00 20.4 19 Sudoeste 31 Oeste 0 -- -- 54
2019-04-19 15:00:00 20.2 21 Oeste 28 Oeste 0 -- -- 55
2019-04-19 14:00:00 20.3 8 Sudoeste 15 Sudoeste 0 -- -- 59
2019-04-19 13:00:00 19.3 6 Este 16 Este 0 -- -- 59
2019-04-19 12:00:00 17.9 7 Nordeste 13 Nordeste 0 -- -- 69
2019-04-19 11:00:00 15 5 Nordeste 11 Nordeste 0 -- -- 81
2019-04-19 10:00:00 11.7 3 Nordeste 12 Nordeste 0 -- -- 98
2019-04-19 09:00:00 9.3 6 Norte 10 Nordeste 0 -- -- 98
2019-04-19 08:00:00 7.1 0 Calma 6 Nordeste 0 -- -- 96
2019-04-19 07:00:00 8.7 2 Norte 5 Nordeste 0 -- -- 97
2019-04-19 06:00:00 9 0 Calma 6 Norte 0 -- -- 96
2019-04-19 05:00:00 8.9 2 Norte 8 Noroeste 0 -- -- 97
2019-04-19 04:00:00 8 0 Calma 4 Norte 0 -- -- 96
2019-04-19 03:00:00 8.1 3 Oeste 5 Nordeste 0 -- -- 95
2019-04-19 02:00:00 9.9 4 Norte 9 Noroeste 0 -- -- 95
2019-04-19 01:00:00 9.7 0 Calma 4 Sudoeste 0 -- -- 95
2019-04-19 00:00:00 9.6 3 Oeste 4 Sudoeste 0 -- -- 91
2019-04-18 23:00:00 11.2 2 Norte 4 Norte 0 -- -- 88
2019-04-18 22:00:00 13 3 Norte 10 Oeste 0 -- -- 84
2019-04-18 21:00:00 14.9 7 Oeste 23 Oeste 0 -- -- 77
2019-04-18 20:00:00 17.5 17 Oeste 29 Oeste 0 -- -- 67
2019-04-18 19:00:00 19.1 20 Oeste 28 Sudoeste 0 -- -- 63
2019-04-18 18:00:00 17 11 Noroeste 33 Oeste 0 -- -- 56
2019-04-18 17:00:00 17.7 23 Oeste 39 Oeste 0 -- -- 68
2019-04-18 16:00:00 19 29 Sudoeste 42 Sudoeste 0 -- -- 64
2019-04-18 15:00:00 18.4 27 Sudoeste 37 Sudoeste 0 -- -- 74
2019-04-18 14:00:00 18.1 23 Sur 33 Sur 0 -- -- 74
2019-04-18 13:00:00 18.2 18 Sudoeste 28 Sur 0 -- -- 73
2019-04-18 12:00:00 16.9 10 Sudoeste 15 Sudoeste 0 -- -- 79
2019-04-18 11:00:00 15.2 3 Sudeste 8 Este 0 -- -- 93
2019-04-18 10:00:00 13 4 Sudeste 18 Nordeste 0 -- -- 97
2019-04-18 09:00:00 11.9 7 Este 15 Sudeste 1 -- -- 97
2019-04-18 08:00:00 11.4 4 Oeste 9 Norte 1.2 -- -- 95
2019-04-18 07:00:00 11.5 4 Nordeste 10 Nordeste 2.2 -- -- 95
2019-04-18 06:00:00 11.7 9 Sudoeste 22 Sudoeste 2.6 -- -- 95
2019-04-18 05:00:00 11 3 Nordeste 5 Nordeste 0 -- -- 92
2019-04-18 04:00:00 11.7 3 Este 4 Norte 0 -- -- 89
2019-04-18 03:00:00 12.7 3 Nordeste 8 Sudoeste 0 -- -- 90
2019-04-18 02:00:00 13.2 7 Sudoeste 12 Sudoeste 0 -- -- 86
2019-04-18 01:00:00 13.9 5 Sudoeste 11 Sudoeste 0 -- -- 80
2019-04-18 00:00:00 15.5 8 Oeste 20 Oeste 0 -- -- 76
2019-04-17 23:00:00 16.2 17 Sudoeste 28 Sudoeste 0 -- -- 67
2019-04-17 22:00:00 15.1 6 Sudoeste 20 Sur 0 -- -- 69
2019-04-17 21:00:00 15.7 9 Sur 16 Sudeste 0 -- -- 68
2019-04-17 20:00:00 16.3 5 Sudeste 19 Sudoeste 0 -- -- 67
2019-04-17 19:00:00 16.2 11 Sudoeste 24 Oeste 0 -- -- 69
2019-04-17 18:00:00 15.8 15 Oeste 30 Oeste 0 -- -- 73
2019-04-17 17:00:00 16.1 21 Oeste 39 Sudoeste 0 -- -- 75
2019-04-17 16:00:00 21 26 Sur 38 Sudoeste 0 -- -- 65
2019-04-17 15:00:00 21.6 30 Sur 48 Sur 0 -- -- 64
2019-04-17 14:00:00 23 34 Sur 46 Sur 0 -- -- 54
2019-04-17 13:00:00 22.2 31 Sur 48 Sur 0 -- -- 58
2019-04-17 12:00:00 21.3 25 Sur 41 Sur 0 -- -- 61
2019-04-17 11:00:00 17.4 10 Sudeste 32 Sudeste 0 -- -- 79
2019-04-17 10:00:00 12.6 0 Calma 9 Norte 0 -- -- 97
2019-04-17 09:00:00 9 0 Calma 5 Nordeste 0 -- -- 98
2019-04-17 08:00:00 7.4 0 Calma 3 Noroeste 0 -- -- 97
2019-04-17 07:00:00 8.3 0 Calma 6 Nordeste 0 -- -- 95
2019-04-17 06:00:00 9 3 Nordeste 10 Nordeste 0 -- -- 96
2019-04-17 05:00:00 8.7 4 Norte 12 Nordeste 0 -- -- 94
2019-04-17 04:00:00 9.9 3 Sur 6 Norte 0 -- -- 95
2019-04-17 03:00:00 10.7 3 Noroeste 10 Noroeste 0 -- -- 95
2019-04-17 02:00:00 10.3 0 Calma 4 Oeste 0 -- -- 93
2019-04-17 01:00:00 11.5 4 Oeste 11 Oeste 0 -- -- 93
2019-04-17 00:00:00 11.7 6 Oeste 13 Oeste 0 -- -- 87
2019-04-16 23:00:00 13.5 6 Oeste 12 Noroeste 0 -- -- 88
2019-04-16 22:00:00 14 7 Oeste 9 Oeste 0 -- -- 82
2019-04-16 21:00:00 17 4 Oeste 15 Sudoeste 0 -- -- 71
2019-04-16 20:00:00 20.1 12 Sudoeste 21 Oeste 0 -- -- 58
2019-04-16 19:00:00 21.7 15 Oeste 24 Oeste 0 -- -- 54
2019-04-16 18:00:00 22.4 18 Oeste 24 Sudoeste 0 -- -- 53
2019-04-16 17:00:00 23.3 17 Oeste 27 Sudoeste 0 -- -- 49
2019-04-16 16:00:00 24.1 19 Sudoeste 24 Sudoeste 0 -- -- 49
2019-04-16 15:00:00 23.6 5 Nordeste 17 Nordeste 0 -- -- 44
2019-04-16 14:00:00 22.3 8 Nordeste 16 Este 0 -- -- 52
2019-04-16 13:00:00 20.8 5 Nordeste 12 Nordeste 0 -- -- 57
2019-04-16 12:00:00 18.5 5 Nordeste 12 Nordeste 0 -- -- 65
2019-04-16 11:00:00 15.4 6 Nordeste 13 Nordeste 0 -- -- 81
2019-04-16 10:00:00 11.4 4 Nordeste 8 Nordeste 0 -- -- 98
2019-04-16 09:00:00 8 3 Nordeste 6 Norte 0 -- -- 99
2019-04-16 08:00:00 6 0 Calma 4 Noroeste 0 -- -- 95
2019-04-16 07:00:00 6.3 0 Calma 5 Sudeste 0 -- -- 96
2019-04-16 06:00:00 6.8 2 Sudoeste 5 Sudoeste 0 -- -- 95
2019-04-16 05:00:00 8.2 3 Oeste 7 Oeste 0 -- -- 94
2019-04-16 04:00:00 8.7 5 Oeste 9 Oeste 0 -- -- 91
2019-04-16 03:00:00 10.1 6 Oeste 12 Oeste 0 -- -- 87
2019-04-16 02:00:00 11.2 7 Oeste 15 Oeste 0 -- -- 83
2019-04-16 01:00:00 12.5 8 Oeste 15 Oeste 0 -- -- 81
2019-04-16 00:00:00 13.8 10 Oeste 16 Oeste 0 -- -- 85
2019-04-15 23:00:00 15.3 13 Oeste 27 Oeste 0 -- -- 86
2019-04-15 22:00:00 15.9 22 Oeste 35 Oeste 0 -- -- 82
2019-04-15 21:00:00 16.2 21 Sudoeste 38 Sudoeste 0 -- -- 80
2019-04-15 20:00:00 17.9 27 Sudoeste 40 Sudoeste 0 -- -- 77
2019-04-15 19:00:00 18.6 27 Oeste 43 Oeste 0 -- -- 75
2019-04-15 18:00:00 20.6 27 Oeste 44 Sudoeste 0 -- -- 66
2019-04-15 17:00:00 20.9 33 Sudoeste 49 Oeste 0 -- -- 68
2019-04-15 16:00:00 22.8 31 Sudoeste 39 Sudoeste 0 -- -- 59
2019-04-15 15:00:00 22.8 24 Sudoeste 34 Sudoeste 0 -- -- 58
2019-04-15 14:00:00 21.6 26 Sudoeste 32 Sudoeste 0 -- -- 64
2019-04-15 13:00:00 21.1 21 Sudoeste 31 Sudoeste 0 -- -- 64
2019-04-15 12:00:00 21.4 18 Sudoeste 27 Sudoeste 0 -- -- 61
2019-04-15 11:00:00 20.5 11 Oeste 18 Sudoeste 0 -- -- 60
2019-04-15 10:00:00 15.5 9 Oeste 15 Oeste 0 -- -- 98
2019-04-15 09:00:00 9.7 4 Oeste 6 Oeste 0 -- -- 97
2019-04-15 08:00:00 8 0 Calma 8 Oeste 0 -- -- 94
2019-04-15 07:00:00 7.8 0 Calma 5 Sudoeste 0 -- -- 91
2019-04-15 06:00:00 9.7 3 Noroeste 4 Noroeste 0 -- -- 91
2019-04-15 05:00:00 10.6 3 Noroeste 8 Nordeste 0 -- -- 92
2019-04-15 04:00:00 11.2 3 Nordeste 5 Nordeste 0 -- -- 90
2019-04-15 03:00:00 12.2 0 Calma 5 Sur 0 -- -- 91
2019-04-15 02:00:00 11.7 6 Sur 8 Sur 0 -- -- 84
2019-04-15 01:00:00 14 2 Norte 7 Sudoeste 0 -- -- 82
2019-04-15 00:00:00 14.8 4 Sudoeste 6 Sudoeste 0 -- -- 74
2019-04-14 23:00:00 16.4 -- -- -- -- 0 -- -- 70
2019-04-14 22:00:00 17.9 4 Noroeste 9 Oeste 0 -- -- 63
2019-04-14 21:00:00 19.4 6 Oeste 16 Oeste 0 -- -- 58
2019-04-14 20:00:00 21.6 11 Oeste 19 Oeste 0 -- -- 53
2019-04-14 19:00:00 24.5 14 Oeste 23 Sudoeste 0 -- -- 46
2019-04-14 18:00:00 25 20 Sudoeste 26 Oeste 0 -- -- 42
2019-04-14 17:00:00 25.6 18 Oeste 27 Sudoeste 0 -- -- 41
2019-04-14 16:00:00 26.4 16 Oeste 22 Oeste 0 -- -- 44
2019-04-14 15:00:00 26 4 Este 13 Este 0 -- -- 43
2019-04-14 14:00:00 25.1 5 Este 13 Nordeste 0 -- -- 45
2019-04-14 13:00:00 23.6 8 Nordeste 15 Nordeste 0 -- -- 49
2019-04-14 12:00:00 21.4 6 Este 15 Nordeste 0 -- -- 58
2019-04-14 11:00:00 17.4 8 Nordeste 15 Nordeste 0 -- -- 75
2019-04-14 10:00:00 13.1 7 Nordeste 12 Nordeste 0 -- -- 98
2019-04-14 09:00:00 10.3 4 Nordeste 10 Nordeste 0 -- -- 98
2019-04-14 08:00:00 9.3 3 Norte 8 Norte 0 -- -- 97
2019-04-14 07:00:00 9.2 2 Noroeste 4 Nordeste 0 -- -- 96
2019-04-14 06:00:00 10.1 3 Nordeste 8 Nordeste 0 -- -- 96
2019-04-14 05:00:00 10.4 4 Nordeste 7 Nordeste 0 -- -- 96
2019-04-14 04:00:00 10.2 0 Calma 5 Noroeste 0 -- -- 93
2019-04-14 03:00:00 11 0 Calma 3 Oeste 0 -- -- 93
2019-04-14 02:00:00 11.8 0 Calma 8 Sudoeste 0 -- -- 93
2019-04-14 01:00:00 12.4 4 Sudoeste 9 Oeste 0 -- -- 89
2019-04-14 00:00:00 13.9 8 Oeste 15 Sudoeste 0 -- -- 88
2019-04-13 23:00:00 14.2 9 Sudoeste 17 Oeste 0 -- -- 84
2019-04-13 22:00:00 15.2 12 Oeste 18 Oeste 0 -- -- 79
2019-04-13 21:00:00 16.6 14 Oeste 29 Oeste 0 -- -- 73
2019-04-13 20:00:00 19.1 19 Oeste 31 Oeste 0 -- -- 62
2019-04-13 19:00:00 20.8 22 Oeste 29 Oeste 0 -- -- 54
2019-04-13 18:00:00 22.6 21 Oeste 29 Oeste 0 -- -- 34
2019-04-13 17:00:00 22 24 Sudoeste 31 Sudoeste 0 -- -- 43
2019-04-13 16:00:00 22.1 23 Sudoeste 30 Sudoeste 0 -- -- 48
2019-04-13 15:00:00 23.3 19 Sudoeste 28 Sudoeste 0 -- -- 43
2019-04-13 14:00:00 23.4 3 Nordeste 12 Este 0 -- -- 35
2019-04-13 13:00:00 22.3 5 Este 13 Este 0 -- -- 41
2019-04-13 12:00:00 20.3 6 Este 14 Este 0 -- -- 46
2019-04-13 11:00:00 17 6 Este 12 Nordeste 0 -- -- 61
2019-04-13 10:00:00 12.6 5 Nordeste 12 Nordeste 0 -- -- 83
2019-04-13 09:00:00 8.2 4 Noroeste 8 Noroeste 0 -- -- 96
2019-04-13 08:00:00 7.5 3 Este 5 Este 0 -- -- 94
2019-04-13 07:00:00 8.3 3 Nordeste 7 Nordeste 0 -- -- 92
2019-04-13 06:00:00 9.2 5 Nordeste 10 Norte 0 -- -- 90
2019-04-13 05:00:00 10.7 4 Norte 12 Noroeste 0 -- -- 83
2019-04-13 04:00:00 10.8 5 Noroeste 14 Noroeste 0 -- -- 83
2019-04-13 03:00:00 11 9 Oeste 13 Oeste 0 -- -- 81
2019-04-13 02:00:00 11.1 10 Oeste 13 Oeste 0 -- -- 88
2019-04-13 01:00:00 11.4 9 Oeste 14 Oeste 0 -- -- 87
2019-04-13 00:00:00 12.7 10 Oeste 15 Oeste 0 -- -- 82
2019-04-12 23:00:00 13.1 10 Oeste 15 Oeste 0 -- -- 81
2019-04-12 22:00:00 14.3 11 Oeste 19 Oeste 0 -- -- 79
2019-04-12 21:00:00 15.8 13 Oeste 31 Oeste 0 -- -- 73
2019-04-12 20:00:00 18 24 Oeste 34 Oeste 0 -- -- 67
2019-04-12 19:00:00 21 21 Oeste 27 Oeste 0 -- -- 42
2019-04-12 18:00:00 22.1 21 Oeste 32 Sudoeste 0 -- -- 40
2019-04-12 17:00:00 21.9 23 Oeste 31 Oeste 0 -- -- 41
2019-04-12 16:00:00 22.5 21 Sudoeste 30 Oeste 0 -- -- 46
2019-04-12 15:00:00 22.9 18 Sudoeste 26 Sudoeste 0 -- -- 46
2019-04-12 14:00:00 22.2 4 Sudeste 13 Nordeste 0 -- -- 40
2019-04-12 13:00:00 20.3 8 Nordeste 17 Este 0 -- -- 47
2019-04-12 12:00:00 18 9 Nordeste 20 Nordeste 0 -- -- 58
2019-04-12 11:00:00 15.5 6 Nordeste 14 Nordeste 0 -- -- 71
2019-04-12 10:00:00 12.7 8 Nordeste 14 Nordeste 0 -- -- 81
2019-04-12 09:00:00 9 6 Norte 13 Noroeste 0 -- -- 86
2019-04-12 08:00:00 6.4 5 Noroeste 9 Noroeste 0 -- -- 92
2019-04-12 07:00:00 6.3 2 Norte 6 Noroeste 0 -- -- 88
2019-04-12 06:00:00 7.8 3 Sudeste 12 Norte 0 -- -- 85
2019-04-12 05:00:00 9.8 7 Norte 12 Norte 0 -- -- 78
2019-04-12 04:00:00 9.4 2 Norte 10 Nordeste 0 -- -- 82
2019-04-12 03:00:00 10.8 6 Nordeste 10 Norte 0 -- -- 81
2019-04-12 02:00:00 12.3 6 Noroeste 15 Noroeste 0 -- -- 71
2019-04-12 01:00:00 12.2 8 Noroeste 15 Noroeste 0 -- -- 73
2019-04-12 00:00:00 13.2 6 Noroeste 16 Oeste 0 -- -- 81
2019-04-11 23:00:00 14.3 13 Oeste 19 Oeste 0 -- -- 81
2019-04-11 22:00:00 14.3 10 Oeste 18 Oeste 0 -- -- 82
2019-04-11 21:00:00 15.4 13 Sudoeste 33 Oeste 0 -- -- 81
2019-04-11 20:00:00 16.9 20 Oeste 34 Oeste 0 -- -- 72
2019-04-11 19:00:00 18.8 23 Oeste 34 Oeste 0 -- -- 61
2019-04-11 18:00:00 20.6 22 Oeste 30 Sudoeste 0 -- -- 50
2019-04-11 17:00:00 20.9 22 Sudoeste 31 Sudoeste 0 -- -- 48
2019-04-11 16:00:00 20.5 23 Oeste 31 Oeste 0 -- -- 49
2019-04-11 15:00:00 20.8 22 Sudoeste 30 Sudoeste 0 -- -- 44
2019-04-11 14:00:00 20.5 23 Sudoeste 31 Oeste 0 -- -- 45
2019-04-11 13:00:00 19.7 18 Sudoeste 22 Sudoeste 0 -- -- 51
2019-04-11 12:00:00 18.1 8 Sudoeste 15 Sudoeste 0 -- -- 55
2019-04-11 11:00:00 15.3 5 Nordeste 11 Noroeste 0 -- -- 64
2019-04-11 10:00:00 12.1 6 Noroeste 13 Noroeste 0 -- -- 79
2019-04-11 09:00:00 8.5 6 Noroeste 13 Noroeste 0 -- -- 93
2019-04-11 08:00:00 7.2 7 Noroeste 12 Noroeste 0 -- -- 91
2019-04-11 07:00:00 8.1 5 Noroeste 14 Noroeste 0 -- -- 88
2019-04-11 06:00:00 9 7 Noroeste 15 Oeste 0 -- -- 86
2019-04-11 05:00:00 9.4 9 Noroeste 15 Noroeste 0 -- -- 83
2019-04-11 04:00:00 10.2 7 Noroeste 17 Noroeste 0 -- -- 79
2019-04-11 03:00:00 11.5 10 Noroeste 20 Noroeste 0 -- -- 75
2019-04-11 02:00:00 12.2 10 Noroeste 17 Noroeste 0 -- -- 75
2019-04-11 01:00:00 13 9 Oeste 17 Oeste 0 -- -- 73
2019-04-11 00:00:00 13.5 10 Noroeste 16 Noroeste 0 -- -- 72
2019-04-10 23:00:00 13.4 8 Oeste 14 Oeste 0 -- -- 69
2019-04-10 22:00:00 14.4 8 Noroeste 12 Noroeste 0 -- -- 59
2019-04-10 21:00:00 17.1 6 Noroeste 26 Noroeste 0 -- -- 48
2019-04-10 20:00:00 19.4 10 Noroeste 29 Oeste 0 -- -- 42
2019-04-10 19:00:00 19.3 23 Oeste 44 Oeste 0 -- -- 61
2019-04-10 18:00:00 19.2 32 Sudoeste 47 Sudoeste 0 -- -- 62
2019-04-10 17:00:00 20 26 Oeste 41 Oeste 0 -- -- 57
2019-04-10 16:00:00 19.3 31 Oeste 44 Oeste 0 -- -- 57
2019-04-10 15:00:00 18.9 31 Oeste 45 Oeste 0 -- -- 60
2019-04-10 14:00:00 18.5 22 Oeste 37 Oeste 0 -- -- 58
2019-04-10 13:00:00 17.2 17 Noroeste 38 Oeste 0 -- -- 50
2019-04-10 12:00:00 16.4 10 Noroeste 26 Noroeste 0 -- -- 57
2019-04-10 11:00:00 14.4 8 Noroeste 21 Noroeste 0 -- -- 70
2019-04-10 10:00:00 11.7 11 Noroeste 18 Oeste 0 -- -- 86
2019-04-10 09:00:00 8.5 7 Oeste 13 Oeste 0 -- -- 96
2019-04-10 08:00:00 7.4 5 Noroeste 13 Noroeste 0 -- -- 94
2019-04-10 07:00:00 7.2 6 Noroeste 10 Noroeste 0 -- -- 94
2019-04-10 06:00:00 7.5 4 Oeste 7 Oeste 0 -- -- 92
2019-04-10 05:00:00 8.6 0 Calma 14 Noroeste 0 -- -- 89
2019-04-10 04:00:00 9.4 8 Noroeste 15 Noroeste 0 -- -- 89
2019-04-10 03:00:00 10.3 8 Noroeste 18 Oeste 0 -- -- 85
2019-04-10 02:00:00 11 9 Noroeste 18 Oeste 0 -- -- 82
2019-04-10 01:00:00 11.1 8 Oeste 15 Oeste 0 -- -- 80
2019-04-10 00:00:00 12.3 6 Oeste 18 Noroeste 0 -- -- 74
2019-04-09 23:00:00 12.8 6 Noroeste 15 Noroeste 0 -- -- 71
2019-04-09 22:00:00 14.4 10 Oeste 24 Oeste 0 -- -- 78
2019-04-09 21:00:00 15.5 16 Oeste 32 Oeste 0 -- -- 74
2019-04-09 20:00:00 16.7 19 Oeste 38 Sudoeste 0 -- -- 70
2019-04-09 19:00:00 18 30 Sudoeste 42 Sudoeste 0 -- -- 63
2019-04-09 18:00:00 18.2 31 Sudoeste 44 Oeste 0 -- -- 64
2019-04-09 17:00:00 18.8 32 Sudoeste 41 Sudoeste 0 -- -- 59
2019-04-09 16:00:00 18.9 27 Oeste 40 Sudoeste 0 -- -- 59
2019-04-09 15:00:00 19.2 28 Sudoeste 39 Sudoeste 0 -- -- 56
2019-04-09 14:00:00 18.6 26 Sudoeste 36 Sudoeste 0 -- -- 57
2019-04-09 13:00:00 18.1 22 Oeste 34 Oeste 0 -- -- 60
2019-04-09 12:00:00 17.2 21 Oeste 30 Oeste 0 -- -- 64
2019-04-09 11:00:00 16.3 21 Oeste 31 Oeste 0 -- -- 67
2019-04-09 10:00:00 14.8 15 Oeste 23 Oeste 0 -- -- 77
2019-04-09 09:00:00 12.2 9 Oeste 16 Oeste 0 -- -- 91
2019-04-09 08:00:00 10.3 8 Oeste 14 Oeste 0 -- -- 92
2019-04-09 07:00:00 9.6 7 Oeste 13 Oeste 0 -- -- 96
2019-04-09 06:00:00 7.2 7 Oeste 12 Oeste 0 -- -- 94
2019-04-09 05:00:00 6.9 4 Oeste 12 Noroeste 0 -- -- 88
2019-04-09 04:00:00 7.9 5 Oeste 11 Noroeste 0 -- -- 86
2019-04-09 03:00:00 9.7 8 Noroeste 13 Noroeste 0 -- -- 83
2019-04-09 02:00:00 10.5 10 Noroeste 20 Noroeste 0 -- -- 80
2019-04-09 01:00:00 10.9 10 Noroeste 16 Noroeste 0 -- -- 79
2019-04-09 00:00:00 12.5 8 Oeste 15 Oeste 0 -- -- 74
2019-04-08 23:00:00 14 8 Oeste 28 Oeste 0 -- -- 83
2019-04-08 22:00:00 14.6 21 Sudoeste 32 Sudoeste 0 -- -- 84
2019-04-08 21:00:00 14.8 22 Sudoeste 39 Sudoeste 0 -- -- 83
2019-04-08 20:00:00 16.4 26 Sudoeste 43 Oeste 0 -- -- 77
2019-04-08 19:00:00 17.7 24 Sudoeste 41 Sudoeste 0 -- -- 74
2019-04-08 18:00:00 17.9 25 Sudoeste 37 Sudoeste 0 -- -- 74
2019-04-08 17:00:00 18.3 26 Oeste 37 Oeste 0 -- -- 75
2019-04-08 16:00:00 16.7 26 Sudoeste 36 Sudoeste 0 -- -- 82
2019-04-08 15:00:00 17.1 27 Sudoeste 36 Oeste 0 -- -- 85
2019-04-08 14:00:00 16.5 22 Sudoeste 35 Sudoeste 0.6 -- -- 95
2019-04-08 13:00:00 17 23 Sudoeste 39 Sudoeste 1.2 -- -- 94
2019-04-08 12:00:00 16.6 24 Sudoeste 37 Sudoeste 0.2 -- -- 88
2019-04-08 11:00:00 16.7 21 Sudoeste 35 Sudoeste 0 -- -- 86
2019-04-08 10:00:00 16.1 17 Sudoeste 28 Sudoeste 0 -- -- 90
2019-04-08 09:00:00 15.1 19 Sudoeste 29 Sudoeste 0 -- -- 91
2019-04-08 08:00:00 14.5 13 Sudoeste 20 Sudoeste 0 -- -- 91
2019-04-08 07:00:00 14.7 15 Sudoeste 24 Sudoeste 0 -- -- 96
2019-04-08 06:00:00 13.8 12 Sudoeste 17 Sudoeste 0 -- -- 96
2019-04-08 05:00:00 14 10 Sudoeste 21 Oeste 0 -- -- 93
2019-04-08 04:00:00 14.7 15 Sudoeste 26 Sudoeste 0 -- -- 93
2019-04-08 03:00:00 15 15 Sudoeste 23 Sudoeste 0 -- -- 93
2019-04-08 02:00:00 15.1 13 Sudoeste 21 Sudoeste 0 -- -- 94
2019-04-08 01:00:00 14.6 11 Sudoeste 30 Sudoeste 0 -- -- 93
2019-04-08 00:00:00 15.5 19 Sudoeste 31 Sudoeste 0 -- -- 94
2019-04-07 23:00:00 15.4 19 Sudoeste 27 Sudoeste 0 -- -- 94
2019-04-07 22:00:00 15.1 18 Sudoeste 30 Sudoeste 0 -- -- 93
2019-04-07 21:00:00 15.2 19 Oeste 35 Oeste 0 -- -- 92
2019-04-07 20:00:00 15.6 20 Sudoeste 42 Oeste 0.2 -- -- 92
2019-04-07 19:00:00 15.9 27 Oeste 42 Oeste 1.2 -- -- 94
2019-04-07 18:00:00 15.6 27 Sudoeste 41 Oeste 0.8 -- -- 95
2019-04-07 17:00:00 15.3 26 Sudoeste 40 Sudoeste 1.8 -- -- 95
2019-04-07 16:00:00 15 23 Sudoeste 36 Sudoeste 0.4 -- -- 93
2019-04-07 15:00:00 16.2 26 Sudoeste 38 Sudoeste 0 -- -- 80
2019-04-07 14:00:00 18.1 26 Sudoeste 37 Sudoeste 0 -- -- 60
2019-04-07 13:00:00 18 26 Oeste 36 Oeste 0 -- -- 58
2019-04-07 12:00:00 17.1 19 Oeste 30 Oeste 0 -- -- 64
2019-04-07 11:00:00 15.6 17 Oeste 29 Oeste 0 -- -- 63
2019-04-07 10:00:00 13.7 10 Oeste 16 Oeste 0 -- -- 81
2019-04-07 09:00:00 11.1 7 Oeste 13 Oeste 0 -- -- 89
2019-04-07 08:00:00 11 5 Noroeste 13 Oeste 0 -- -- 89
2019-04-07 07:00:00 10.8 7 Oeste 17 Oeste 0 -- -- 89
2019-04-07 06:00:00 11.6 13 Oeste 29 Oeste 1 -- -- 88
2019-04-07 05:00:00 12.5 8 Oeste 26 Oeste 0 -- -- 73
2019-04-07 04:00:00 13.3 12 Oeste 25 Oeste 0 -- -- 75
2019-04-07 03:00:00 12.6 11 Oeste 25 Oeste 0 -- -- 72
2019-04-07 02:00:00 13.2 14 Oeste 25 Oeste 0 -- -- 70
2019-04-07 01:00:00 12.8 15 Oeste 29 Oeste 0 -- -- 68
2019-04-07 00:00:00 13.2 16 Oeste 30 Oeste 0 -- -- 67
2019-04-06 23:00:00 13.5 15 Oeste 35 Oeste 0 -- -- 64
2019-04-06 22:00:00 14 19 Oeste 40 Oeste 0 -- -- 67
2019-04-06 21:00:00 14.3 29 Oeste 52 Oeste 0 -- -- 68
2019-04-06 20:00:00 15.3 32 Oeste 53 Oeste 0 -- -- 69
2019-04-06 19:00:00 16.5 35 Oeste 55 Sudoeste 0 -- -- 61
2019-04-06 18:00:00 17 35 Oeste 53 Oeste 0 -- -- 60
2019-04-06 17:00:00 16 26 Oeste 49 Noroeste 0.4 -- -- 71
2019-04-06 16:00:00 15.9 29 Sudoeste 51 Oeste 0 -- -- 66
2019-04-06 15:00:00 17.4 34 Oeste 48 Oeste 0 -- -- 55
2019-04-06 14:00:00 16.8 27 Sudoeste 40 Oeste 0 -- -- 63
2019-04-06 13:00:00 16.6 26 Oeste 40 Sudoeste 0 -- -- 58
2019-04-06 12:00:00 14.9 24 Oeste 34 Oeste 0 -- -- 61
2019-04-06 11:00:00 14.7 19 Oeste 29 Oeste 0 -- -- 64
2019-04-06 10:00:00 12.5 7 Noroeste 14 Oeste 0 -- -- 71
2019-04-06 09:00:00 10.5 5 Oeste 13 Oeste 0 -- -- 79
2019-04-06 08:00:00 10.4 8 Oeste 19 Oeste 0 -- -- 79
2019-04-06 07:00:00 10.7 13 Oeste 23 Oeste 0 -- -- 78
2019-04-06 06:00:00 10.2 8 Oeste 15 Oeste 0 -- -- 78
2019-04-06 05:00:00 10.9 7 Oeste 18 Oeste 0 -- -- 77
2019-04-06 04:00:00 11.1 11 Oeste 21 Oeste 0 -- -- 75
2019-04-06 03:00:00 11 8 Oeste 21 Oeste 0 -- -- 75
2019-04-06 02:00:00 11.5 10 Oeste 22 Oeste 0 -- -- 74
2019-04-06 01:00:00 11.4 13 Oeste 26 Oeste 0 -- -- 73
2019-04-06 00:00:00 11.3 14 Oeste 23 Oeste 0 -- -- 75
2019-04-05 23:00:00 10.5 12 Oeste 25 Oeste 0 -- -- 71
2019-04-05 22:00:00 10.7 10 Oeste 24 Oeste 0 -- -- 72
2019-04-05 21:00:00 9.8 10 Oeste 49 Oeste 0.2 -- -- 83
2019-04-05 20:00:00 13.7 29 Oeste 52 Oeste 0 -- -- 61
2019-04-05 19:00:00 14.3 33 Oeste 58 Oeste 0 -- -- 60
2019-04-05 18:00:00 15 34 Oeste 59 Oeste 0 -- -- 59
2019-04-05 17:00:00 15.6 31 Oeste 43 Sudoeste 0 -- -- 57
2019-04-05 16:00:00 14.2 26 Oeste 53 Oeste 0.2 -- -- 69
2019-04-05 15:00:00 15.5 29 Oeste 50 Oeste 0 -- -- 55
2019-04-05 14:00:00 14.7 30 Oeste 47 Oeste 0 -- -- 60
2019-04-05 13:00:00 13.7 27 Oeste 38 Oeste 0 -- -- 69
2019-04-05 12:00:00 12.2 22 Noroeste 39 Oeste 0 -- -- 69
2019-04-05 11:00:00 11.5 13 Noroeste 30 Oeste 1.6 -- -- 89
2019-04-05 10:00:00 11.4 24 Oeste 37 Oeste 0.8 -- -- 88
2019-04-05 09:00:00 11.1 13 Oeste 39 Sudoeste 6.2 -- -- 94
2019-04-05 08:00:00 12.8 26 Sudoeste 40 Sudoeste 0.2 -- -- 90
2019-04-05 07:00:00 11.6 18 Sudoeste 50 Oeste 2.4 -- -- 93
2019-04-05 06:00:00 12.7 28 Sudoeste 42 Sudoeste 0.8 -- -- 89
2019-04-05 05:00:00 12 23 Sudoeste 42 Sudoeste 0.8 -- -- 93
2019-04-05 04:00:00 11.8 19 Sudoeste 32 Sudoeste 0.8 -- -- 90
2019-04-05 03:00:00 12.1 12 Oeste 28 Sudoeste 0.6 -- -- 89
2019-04-05 02:00:00 12.7 15 Oeste 23 Oeste 0 -- -- 64
2019-04-05 01:00:00 12.7 16 Oeste 27 Oeste 0 -- -- 59
2019-04-05 00:00:00 12 8 Oeste 19 Noroeste 0 -- -- 57
2019-04-04 23:00:00 13.6 10 Oeste 42 Oeste 0 -- -- 50
2019-04-04 22:00:00 14.3 26 Oeste 38 Sudoeste 0 -- -- 64
2019-04-04 21:00:00 14.3 20 Oeste 38 Oeste 0 -- -- 58
2019-04-04 20:00:00 15.8 26 Oeste 41 Oeste 0 -- -- 46
2019-04-04 19:00:00 17.2 29 Sudoeste 42 Sudoeste 0 -- -- 47
2019-04-04 18:00:00 18.4 28 Sudoeste 40 Oeste 0 -- -- 35
2019-04-04 17:00:00 18.7 27 Sudoeste 38 Sudoeste 0 -- -- 37
2019-04-04 16:00:00 18.9 23 Sudoeste 30 Sudoeste 0 -- -- 27
2019-04-04 15:00:00 18.6 20 Oeste 31 Sudoeste 0 -- -- 33
2019-04-04 14:00:00 18.4 19 Sudoeste 29 Sudoeste 0 -- -- 34
2019-04-04 13:00:00 17.9 15 Oeste 27 Sudoeste 0 -- -- 37
2019-04-04 12:00:00 15.8 4 Este 13 Nordeste 0 -- -- 38
2019-04-04 11:00:00 13.8 6 Norte 14 Norte 0 -- -- 47
2019-04-04 10:00:00 10.3 8 Noroeste 15 Noroeste 0 -- -- 66
2019-04-04 09:00:00 5.8 9 Noroeste 14 Noroeste 0 -- -- 84
2019-04-04 08:00:00 5.1 8 Noroeste 15 Norte 0 -- -- 83
2019-04-04 07:00:00 5.7 7 Noroeste 15 Noroeste 0 -- -- 81
2019-04-04 06:00:00 6.8 6 Noroeste 14 Noroeste 0 -- -- 78
2019-04-04 05:00:00 8.3 8 Noroeste 18 Noroeste 0 -- -- 72
2019-04-04 04:00:00 9.4 7 Noroeste 19 Norte 0 -- -- 67
2019-04-04 03:00:00 10.2 8 Noroeste 20 Noroeste 0 -- -- 62
2019-04-04 02:00:00 11 10 Noroeste 21 Noroeste 0 -- -- 58
2019-04-04 01:00:00 11.1 10 Noroeste 18 Oeste 0 -- -- 59
2019-04-04 00:00:00 11.7 8 Oeste 15 Noroeste 0 -- -- 57
2019-04-03 23:00:00 12.5 7 Oeste 13 Oeste 0 -- -- 56
2019-04-03 22:00:00 12.9 8 Oeste 13 Oeste 0 -- -- 56
2019-04-03 21:00:00 16.6 7 Oeste 24 Oeste 0 -- -- 45
2019-04-03 20:00:00 18.8 16 Oeste 32 Oeste 0 -- -- 54
2019-04-03 19:00:00 20.5 21 Oeste 40 Oeste 0 -- -- 45
2019-04-03 18:00:00 21.6 22 Oeste 37 Noroeste 0 -- -- 37
2019-04-03 17:00:00 22 24 Oeste 35 Oeste 0 -- -- 38
2019-04-03 16:00:00 22.2 25 Oeste 36 Sudoeste 0 -- -- 41
2019-04-03 15:00:00 22.8 23 Oeste 35 Sudoeste 0 -- -- 40
2019-04-03 14:00:00 22.3 23 Sudoeste 35 Oeste 0 -- -- 44
2019-04-03 13:00:00 21.3 17 Sudoeste 24 Sudoeste 0 -- -- 52
2019-04-03 12:00:00 18.8 3 Este 9 Nordeste 0 -- -- 63
2019-04-03 11:00:00 15.1 4 Nordeste 11 Nordeste 0 -- -- 79
2019-04-03 10:00:00 11.7 6 Nordeste 10 Noroeste 0 -- -- 97
2019-04-03 09:00:00 8.7 7 Norte 14 Norte 0 -- -- 97
2019-04-03 08:00:00 8.6 5 Norte 8 Norte 0 -- -- 96
2019-04-03 07:00:00 7.7 0 Calma 2 Nordeste 0 -- -- 93
2019-04-03 06:00:00 9.2 0 Calma 8 Oeste 0 -- -- 91
2019-04-03 05:00:00 11 5 Oeste 11 Noroeste 0 -- -- 90
2019-04-03 04:00:00 11.6 8 Noroeste 12 Oeste 0 -- -- 96
2019-04-03 03:00:00 10.9 2 Norte 10 Oeste 0 -- -- 94
2019-04-03 02:00:00 11.3 8 Oeste 12 Oeste 0 -- -- 93
2019-04-03 01:00:00 12.3 3 Sudoeste 10 Oeste 0 -- -- 90
2019-04-03 00:00:00 13.6 6 Oeste 14 Oeste 0 -- -- 90
2019-04-02 23:00:00 14.7 9 Oeste 18 Oeste 0 -- -- 88
2019-04-02 22:00:00 15.6 13 Oeste 19 Oeste 0 -- -- 85
2019-04-02 21:00:00 16.4 12 Oeste 18 Oeste 0 -- -- 81
2019-04-02 20:00:00 17.6 9 Oeste 21 Oeste 0 -- -- 72
2019-04-02 19:00:00 18.6 14 Oeste 23 Sudoeste 0 -- -- 67
2019-04-02 18:00:00 20.2 16 Oeste 24 Oeste 0 -- -- 62
2019-04-02 17:00:00 22.5 15 Oeste 22 Sudoeste 0 -- -- 56
2019-04-02 16:00:00 21.7 6 Norte 15 Nordeste 0 -- -- 52
2019-04-02 15:00:00 20.6 6 Este 15 Nordeste 0 -- -- 57
2019-04-02 14:00:00 19.1 8 Nordeste 20 Nordeste 0 -- -- 67
2019-04-02 13:00:00 18 10 Nordeste 19 Nordeste 0 -- -- 75
2019-04-02 12:00:00 16.4 7 Nordeste 15 Este 0 -- -- 82
2019-04-02 11:00:00 13.8 5 Nordeste 10 Nordeste 0 -- -- 98
2019-04-02 10:00:00 12.1 5 Nordeste 9 Nordeste 0 -- -- 98
2019-04-02 09:00:00 11.1 6 Nordeste 13 Nordeste 0 -- -- 98
2019-04-02 08:00:00 10.4 8 Nordeste 10 Nordeste 0 -- -- 98
2019-04-02 07:00:00 9.1 6 Nordeste 9 Nordeste 0 -- -- 98
2019-04-02 06:00:00 9.5 6 Nordeste 10 Nordeste 0 -- -- 98
2019-04-02 05:00:00 8.6 3 Norte 6 Norte 0 -- -- 96
2019-04-02 04:00:00 8.3 2 Sur 5 Sur 0 -- -- 96
2019-04-02 03:00:00 8.4 0 Calma 5 Sudeste 0 -- -- 96
2019-04-02 02:00:00 8.7 0 Calma 4 Sudoeste 0 -- -- 93
2019-04-02 01:00:00 10.3 0 Calma 4 Sudeste 0 -- -- 94
2019-04-02 00:00:00 11.2 2 Norte 5 Sudoeste 0 -- -- 92
2019-04-01 23:00:00 12.9 3 Sudoeste 8 Oeste 0 -- -- 90
2019-04-01 22:00:00 14.4 6 Oeste 12 Oeste 0 -- -- 86
2019-04-01 21:00:00 15.8 7 Oeste 23 Sudoeste 0 -- -- 84
2019-04-01 20:00:00 17.6 18 Sudoeste 28 Sudoeste 0 -- -- 78
2019-04-01 19:00:00 18.9 22 Sudoeste 31 Sudoeste 0 -- -- 72
2019-04-01 18:00:00 19.6 22 Sudoeste 35 Sudoeste 0 -- -- 70
2019-04-01 17:00:00 20.3 24 Sudoeste 35 Sudoeste 0 -- -- 69
2019-04-01 16:00:00 19.9 24 Sudoeste 38 Sudoeste 0 -- -- 72
2019-04-01 15:00:00 19.9 25 Sudoeste 37 Sudoeste 0 -- -- 73
2019-04-01 14:00:00 19.2 23 Sudoeste 32 Sudoeste 0 -- -- 75
2019-04-01 13:00:00 16.5 18 Sudoeste 28 Sudoeste 1.6 -- -- 88
2019-04-01 12:00:00 17.3 15 Sudoeste 21 Sudoeste 0 -- -- 84
2019-04-01 11:00:00 16 10 Sudoeste 14 Sudoeste 0 -- -- 97
2019-04-01 10:00:00 13.3 0 Calma 6 Noroeste 0 -- -- 98
2019-04-01 09:00:00 11.3 0 Calma 8 Sudeste 0 -- -- 96
2019-04-01 08:00:00 10.8 3 Sudeste 5 Sur 0 -- -- 96
2019-04-01 07:00:00 12.6 0 Calma 6 Este 0 -- -- 96
2019-04-01 06:00:00 13 0 Calma 7 Este 0 -- -- 96
2019-04-01 05:00:00 13.1 3 Sudeste 8 Este 0.2 -- -- 96
2019-04-01 04:00:00 12.9 4 Este 8 Este 0 -- -- 96
2019-04-01 03:00:00 12.9 4 Sur 10 Sudeste 0 -- -- 94
2019-04-01 02:00:00 13.9 3 Sudeste 11 Sudeste 0 -- -- 95
2019-04-01 01:00:00 14.5 0 Calma 7 Nordeste 0.4 -- -- 95
2019-04-01 00:00:00 13.7 0 Calma 10 Norte 0 -- -- 95
2019-03-31 23:00:00 13.1 2 Sur 6 Sudoeste 0 -- -- 91
2019-03-31 22:00:00 13.6 5 Sudoeste 9 Sudoeste 0 -- -- 86
2019-03-31 21:00:00 15.5 6 Sudoeste 15 Oeste 0 -- -- 80
2019-03-31 20:00:00 17 12 Sudoeste 20 Sudoeste 0 -- -- 78
2019-03-31 19:00:00 18.9 14 Oeste 25 Sudoeste 0 -- -- 71
2019-03-31 18:00:00 19.4 19 Sudoeste 27 Sudoeste 0 -- -- 65
2019-03-31 17:00:00 19.8 19 Sudoeste 26 Sudoeste 0 -- -- 62
2019-03-31 16:00:00 23.2 15 Sur 26 Sudoeste 0 -- -- 50
2019-03-31 15:00:00 23.4 20 Sudoeste 26 Sudoeste 0 -- -- 49
2019-03-31 14:00:00 21.3 4 Nordeste 12 Nordeste 0 -- -- 54
2019-03-31 13:00:00 20.4 5 Nordeste 14 Este 0 -- -- 59
2019-03-31 12:00:00 18 7 Nordeste 12 Nordeste 0 -- -- 68
2019-03-31 11:00:00 16.4 4 Este 10 Este 0 -- -- 74
2019-03-31 10:00:00 14.7 5 Nordeste 10 Nordeste 0 -- -- 84
2019-03-31 09:00:00 12.5 4 Norte 9 Norte 0 -- -- 91
2019-03-31 08:00:00 12.6 3 Noroeste 7 Sudoeste 0 -- -- 88
2019-03-31 07:00:00 12.7 3 Sudoeste 8 Sudoeste 0 -- -- 86
2019-03-31 06:00:00 13.1 0 Calma 10 Norte 0 -- -- 85
2019-03-31 05:00:00 13.2 4 Norte 7 Norte 0 -- -- 85
2019-03-31 03:00:00 13 5 Norte 9 Norte 0 -- -- 83
2019-03-31 01:00:00 12.5 4 Noroeste 10 Noroeste 0 -- -- 83
2019-03-31 00:00:00 11.9 6 Noroeste 9 Noroeste 0 -- -- 84
2019-03-30 23:00:00 12.8 0 Calma 6 Noroeste 0 -- -- 80
2019-03-30 22:00:00 13.6 0 Calma 10 Sur 0 -- -- 79
2019-03-30 21:00:00 14.8 6 Sur 26 Sur 0 -- -- 74
2019-03-30 20:00:00 16.4 13 Sur 32 Sudeste 0 -- -- 68
2019-03-30 19:00:00 18.2 14 Sudeste 39 Sur 0 -- -- 62
2019-03-30 18:00:00 20.2 16 Sudeste 36 Sudeste 0 -- -- 55
2019-03-30 17:00:00 23.5 12 Sur 32 Sudoeste 0 -- -- 46
2019-03-30 16:00:00 24.9 9 Sur 22 Sudoeste 0 -- -- 39
2019-03-30 15:00:00 22.8 8 Nordeste 20 Nordeste 0 -- -- 42
2019-03-30 14:00:00 22.4 8 Este 21 Nordeste 0 -- -- 43
2019-03-30 13:00:00 20.5 10 Nordeste 19 Nordeste 0 -- -- 44
2019-03-30 12:00:00 19 9 Nordeste 17 Este 0 -- -- 53
2019-03-30 11:00:00 17.8 8 Este 21 Nordeste 0 -- -- 59
2019-03-30 10:00:00 14.6 12 Nordeste 21 Nordeste 0 -- -- 70
2019-03-30 09:00:00 11.4 10 Nordeste 17 Nordeste 0 -- -- 84
2019-03-30 08:00:00 8.7 4 Norte 13 Nordeste 0 -- -- 91
2019-03-30 07:00:00 8.3 5 Nordeste 17 Nordeste 0 -- -- 91
2019-03-30 06:00:00 7.8 5 Nordeste 12 Nordeste 0 -- -- 91
2019-03-30 05:00:00 8.6 7 Nordeste 12 Nordeste 0 -- -- 88
2019-03-30 04:00:00 9.8 6 Nordeste 10 Nordeste 0 -- -- 85
2019-03-30 03:00:00 9.6 8 Nordeste 12 Nordeste 0 -- -- 87
2019-03-30 02:00:00 10.2 6 Nordeste 13 Norte 0 -- -- 87
2019-03-30 01:00:00 10.7 7 Nordeste 10 Norte 0 -- -- 88
2019-03-30 00:00:00 11.2 6 Nordeste 11 Norte 0 -- -- 84
2019-03-29 23:00:00 12 4 Nordeste 7 Nordeste 0 -- -- 80
2019-03-29 22:00:00 13.4 0 Calma 12 Sudeste 0 -- -- 72
2019-03-29 21:00:00 14.9 3 Sudeste 17 Sur 0 -- -- 64
2019-03-29 20:00:00 16.7 6 Sudeste 17 Sur 0 -- -- 59
2019-03-29 19:00:00 19.2 6 Sudeste 24 Sudeste 0 -- -- 51
2019-03-29 18:00:00 18.7 6 Sudeste 20 Sur 0 -- -- 53
2019-03-29 17:00:00 19.6 10 Sudeste 30 Sur 0 -- -- 50
2019-03-29 16:00:00 22.4 14 Sudeste 28 Sur 0 -- -- 43
2019-03-29 15:00:00 24.1 18 Sudoeste 28 Sudoeste 0 -- -- 40
2019-03-29 14:00:00 22.1 6 Este 18 Nordeste 0 -- -- 41
2019-03-29 13:00:00 20.6 8 Nordeste 23 Este 0 -- -- 43
2019-03-29 12:00:00 19.5 10 Nordeste 28 Este 0 -- -- 43
2019-03-29 11:00:00 18.1 13 Nordeste 25 Nordeste 0 -- -- 47
2019-03-29 10:00:00 14.9 10 Nordeste 18 Nordeste 0 -- -- 54
2019-03-29 09:00:00 10.5 13 Nordeste 20 Nordeste 0 -- -- 70
2019-03-29 08:00:00 7 6 Nordeste 12 Nordeste 0 -- -- 88
2019-03-29 07:00:00 6.4 8 Nordeste 13 Nordeste 0 -- -- 87
2019-03-29 06:00:00 6 4 Norte 9 Norte 0 -- -- 83
2019-03-29 05:00:00 6.4 4 Norte 8 Noroeste 0 -- -- 79
2019-03-29 04:00:00 7.2 4 Norte 11 Norte 0 -- -- 70
2019-03-29 03:00:00 7.9 5 Norte 10 Norte 0 -- -- 59
2019-03-29 02:00:00 7.9 4 Norte 11 Norte 0 -- -- 68
2019-03-29 01:00:00 8.5 6 Norte 14 Nordeste 0 -- -- 71
2019-03-29 00:00:00 10.3 8 Nordeste 15 Nordeste 0 -- -- 65
2019-03-28 23:00:00 12.2 6 Este 17 Nordeste 0 -- -- 51
2019-03-28 22:00:00 12.1 2 Este 12 Sudeste 0 -- -- 57
2019-03-28 21:00:00 13.9 6 Sudeste 15 Sudeste 0 -- -- 51
2019-03-28 20:00:00 16.6 9 Sudeste 27 Sudeste 0 -- -- 47
2019-03-28 19:00:00 19.7 8 Sudeste 28 Sudeste 0 -- -- 42
2019-03-28 18:00:00 22.4 11 Sudeste 26 Este 0 -- -- 37
2019-03-28 17:00:00 23.6 8 Este 23 Este 0 -- -- 35
2019-03-28 16:00:00 23.9 8 Este 26 Este 0 -- -- 32
2019-03-28 15:00:00 23.4 9 Sudeste 30 Este 0 -- -- 33
2019-03-28 14:00:00 21 13 Este 25 Nordeste 0 -- -- 36
2019-03-28 13:00:00 20.2 13 Este 27 Nordeste 0 -- -- 39
2019-03-28 12:00:00 18.7 15 Nordeste 28 Nordeste 0 -- -- 42
2019-03-28 11:00:00 16.8 13 Nordeste 22 Nordeste 0 -- -- 49
2019-03-28 10:00:00 14.2 12 Nordeste 23 Nordeste 0 -- -- 62
2019-03-28 09:00:00 10.6 14 Nordeste 23 Nordeste 0 -- -- 73
2019-03-28 08:00:00 7.1 7 Norte 13 Nordeste 0 -- -- 89
2019-03-28 07:00:00 6.2 5 Nordeste 12 Norte 0 -- -- 87
2019-03-28 06:00:00 6.9 9 Nordeste 13 Nordeste 0 -- -- 83
2019-03-28 05:00:00 7.6 10 Nordeste 14 Nordeste 0 -- -- 83
2019-03-28 04:00:00 8.2 8 Norte 15 Norte 0 -- -- 79
2019-03-28 03:00:00 8.5 9 Nordeste 16 Norte 0 -- -- 82
2019-03-28 02:00:00 9 7 Nordeste 13 Nordeste 0 -- -- 80
2019-03-28 01:00:00 10.1 5 Nordeste 13 Norte 0 -- -- 77
2019-03-28 00:00:00 11.3 6 Norte 12 Norte 0 -- -- 74
2019-03-27 23:00:00 12.1 2 Sudeste 19 Este 0 -- -- 64
2019-03-27 22:00:00 13.2 5 Sudeste 26 Sur 0 -- -- 59
2019-03-27 21:00:00 13.8 6 Sudeste 23 Sudeste 0 -- -- 58
2019-03-27 20:00:00 15.5 8 Sudeste 31 Sudeste 0 -- -- 50
2019-03-27 19:00:00 18.4 15 Sudeste 35 Sur 0 -- -- 42
2019-03-27 18:00:00 20.7 17 Sudeste 39 Sudeste 0 -- -- 33
2019-03-27 17:00:00 22.7 12 Sudeste 28 Sudeste 0 -- -- 32
2019-03-27 16:00:00 22.9 6 Norte 21 Nordeste 0 -- -- 29
2019-03-27 15:00:00 22.6 11 Nordeste 24 Nordeste 0 -- -- 34
2019-03-27 14:00:00 22.4 8 Este 22 Este 0 -- -- 34
2019-03-27 13:00:00 20.6 7 Este 20 Este 0 -- -- 39
2019-03-27 12:00:00 19.1 8 Nordeste 19 Este 0 -- -- 39
2019-03-27 11:00:00 17.6 12 Nordeste 28 Nordeste 0 -- -- 45
2019-03-27 10:00:00 15.2 13 Nordeste 22 Nordeste 0 -- -- 55
2019-03-27 09:00:00 11 11 Nordeste 19 Nordeste 0 -- -- 76
2019-03-27 08:00:00 9.1 8 Nordeste 16 Nordeste 0 -- -- 86
2019-03-27 07:00:00 9.5 9 Nordeste 14 Nordeste 0 -- -- 83
2019-03-27 06:00:00 10.6 9 Nordeste 14 Norte 0 -- -- 79
2019-03-27 05:00:00 10.7 6 Nordeste 15 Nordeste 0 -- -- 73
2019-03-27 04:00:00 12.5 5 Este 18 Sudeste 0 -- -- 55
2019-03-27 03:00:00 13.4 7 Este 33 Este 0 -- -- 59
2019-03-27 02:00:00 14.3 12 Este 29 Este 0 -- -- 55
2019-03-27 01:00:00 15.3 13 Sudeste 29 Este 0 -- -- 57
2019-03-27 00:00:00 15.9 15 Sudeste 39 Sudeste 0 -- -- 65
2019-03-26 23:00:00 16.6 15 Sudeste 38 Este 0 -- -- 61
2019-03-26 22:00:00 16.3 8 Sudeste 24 Este 0 -- -- 61
2019-03-26 21:00:00 16.8 5 Sudeste 23 Sur 0 -- -- 58
2019-03-26 20:00:00 18.1 6 Sudeste 24 Sudeste 0 -- -- 49
2019-03-26 19:00:00 19.6 8 Sudeste 32 Sudeste 0 -- -- 45
2019-03-26 18:00:00 21.3 10 Sudeste 30 Sudeste 0 -- -- 41
2019-03-26 17:00:00 24.3 16 Sur 33 Sur 0 -- -- 36
2019-03-26 16:00:00 25.6 9 Sudeste 32 Sudeste 0 -- -- 35
2019-03-26 15:00:00 24.5 13 Sudeste 37 Este 0 -- -- 39
2019-03-26 14:00:00 24.7 14 Sudeste 30 Sudeste 0 -- -- 39
2019-03-26 13:00:00 23.7 9 Nordeste 23 Nordeste 0 -- -- 44
2019-03-26 12:00:00 22.5 13 Nordeste 27 Nordeste 0 -- -- 48
2019-03-26 11:00:00 18.1 14 Nordeste 29 Nordeste 0 -- -- 60
2019-03-26 10:00:00 16.9 19 Nordeste 29 Nordeste 0 -- -- 63
2019-03-26 09:00:00 14 11 Nordeste 19 Nordeste 0 -- -- 73
2019-03-26 08:00:00 11.8 9 Nordeste 15 Nordeste 0 -- -- 81
2019-03-26 07:00:00 12.7 13 Nordeste 19 Nordeste 0 -- -- 76
2019-03-26 06:00:00 12.3 11 Nordeste 18 Nordeste 0 -- -- 79
2019-03-26 05:00:00 12.2 8 Nordeste 18 Nordeste 0 -- -- 80
2019-03-26 04:00:00 12.1 9 Nordeste 16 Nordeste 0 -- -- 78
2019-03-26 03:00:00 11.8 8 Norte 13 Norte 0 -- -- 77
2019-03-26 02:00:00 11.8 5 Norte 11 Nordeste 0 -- -- 80
2019-03-26 01:00:00 12.4 6 Norte 12 Nordeste 0 -- -- 78
2019-03-26 00:00:00 15.2 5 Este 17 Este 0 -- -- 66
2019-03-25 23:00:00 15 8 Sudeste 18 Sudeste 0 -- -- 65
2019-03-25 22:00:00 14.7 4 Sudeste 10 Sudeste 0 -- -- 68
2019-03-25 21:00:00 16.8 4 Sudeste 18 Este 0 -- -- 65
2019-03-25 20:00:00 18.5 5 Sudeste 13 Sudeste 0 -- -- 59
2019-03-25 19:00:00 21.8 8 Sudoeste 19 Oeste 0 -- -- 55
2019-03-25 18:00:00 24.2 18 Oeste 32 Oeste 0 -- -- 44
2019-03-25 17:00:00 25.6 8 Este 26 Nordeste 0 -- -- 39
2019-03-25 16:00:00 25.3 16 Nordeste 34 Nordeste 0 -- -- 41
2019-03-25 15:00:00 24.3 18 Nordeste 33 Nordeste 0 -- -- 43
2019-03-25 14:00:00 23.6 19 Nordeste 33 Nordeste 0 -- -- 43
2019-03-25 13:00:00 22.4 18 Nordeste 37 Nordeste 0 -- -- 46
2019-03-25 12:00:00 20.8 15 Nordeste 29 Nordeste 0 -- -- 50
2019-03-25 11:00:00 18.9 18 Nordeste 28 Nordeste 0 -- -- 53
2019-03-25 10:00:00 15.9 14 Nordeste 25 Nordeste 0 -- -- 67
2019-03-25 09:00:00 11.5 7 Nordeste 15 Nordeste 0 -- -- 84
2019-03-25 08:00:00 9.5 6 Nordeste 10 Nordeste 0 -- -- 91
2019-03-25 07:00:00 8.9 3 Este 10 Nordeste 0 -- -- 91
2019-03-25 06:00:00 8.7 6 Nordeste 10 Nordeste 0 -- -- 91
2019-03-25 05:00:00 9 5 Nordeste 13 Nordeste 0 -- -- 84
2019-03-25 04:00:00 10.1 9 Nordeste 13 Nordeste 0 -- -- 82
2019-03-25 03:00:00 9.5 4 Nordeste 8 Nordeste 0 -- -- 85
2019-03-25 02:00:00 9.8 4 Nordeste 8 Nordeste 0 -- -- 84
2019-03-25 01:00:00 10.7 3 Norte 10 Nordeste 0 -- -- 80
2019-03-25 00:00:00 12.1 3 Norte 10 Nordeste 0 -- -- 78